sensor_id;sensor_type;location;lat;lon;timestamp;temperature;humidity
66962;HTU21D;53897;51.126;5.868;2023-05-07T00:00:05;24.59;50.09
66962;HTU21D;53897;51.126;5.868;2023-05-07T00:02:34;24.59;50.07
66962;HTU21D;53897;51.126;5.868;2023-05-07T00:05:01;24.57;50.06
66962;HTU21D;53897;51.126;5.868;2023-05-07T00:07:27;24.57;50.04
66962;HTU21D;53897;51.126;5.868;2023-05-07T00:09:53;24.57;50.03
66962;HTU21D;53897;51.126;5.868;2023-05-07T00:12:19;24.56;50.01
66962;HTU21D;53897;51.126;5.868;2023-05-07T00:14:44;24.55;50.02
66962;HTU21D;53897;51.126;5.868;2023-05-07T00:17:11;24.54;50.00
66962;HTU21D;53897;51.126;5.868;2023-05-07T00:19:36;24.55;49.98
66962;HTU21D;53897;51.126;5.868;2023-05-07T00:22:02;24.53;49.98
66962;HTU21D;53897;51.126;5.868;2023-05-07T00:24:28;24.53;49.98
66962;HTU21D;53897;51.126;5.868;2023-05-07T00:26:53;24.53;49.98
66962;HTU21D;53897;51.126;5.868;2023-05-07T00:29:19;24.53;49.98
66962;HTU21D;53897;51.126;5.868;2023-05-07T00:31:44;24.50;49.97
66962;HTU21D;53897;51.126;5.868;2023-05-07T00:34:10;24.50;49.98
66962;HTU21D;53897;51.126;5.868;2023-05-07T00:36:36;24.50;49.95
66962;HTU21D;53897;51.126;5.868;2023-05-07T00:39:01;24.49;49.95
66962;HTU21D;53897;51.126;5.868;2023-05-07T00:41:29;24.47;49.93
66962;HTU21D;53897;51.126;5.868;2023-05-07T00:43:56;24.47;49.92
66962;HTU21D;53897;51.126;5.868;2023-05-07T00:46:23;24.47;49.92
66962;HTU21D;53897;51.126;5.868;2023-05-07T00:48:50;24.46;49.94
66962;HTU21D;53897;51.126;5.868;2023-05-07T00:51:17;24.46;49.97
66962;HTU21D;53897;51.126;5.868;2023-05-07T00:53:43;24.45;49.98
66962;HTU21D;53897;51.126;5.868;2023-05-07T00:56:09;24.44;50.08
66962;HTU21D;53897;51.126;5.868;2023-05-07T00:58:35;24.44;50.13
66962;HTU21D;53897;51.126;5.868;2023-05-07T01:01:02;24.43;50.08
66962;HTU21D;53897;51.126;5.868;2023-05-07T01:03:27;24.43;50.10
66962;HTU21D;53897;51.126;5.868;2023-05-07T01:05:55;24.43;50.18
66962;HTU21D;53897;51.126;5.868;2023-05-07T01:08:24;24.42;50.18
66962;HTU21D;53897;51.126;5.868;2023-05-07T01:10:52;24.40;50.17
66962;HTU21D;53897;51.126;5.868;2023-05-07T01:13:20;24.40;50.15
66962;HTU21D;53897;51.126;5.868;2023-05-07T01:15:46;24.39;50.08
66962;HTU21D;53897;51.126;5.868;2023-05-07T01:18:12;24.39;50.02
66962;HTU21D;53897;51.126;5.868;2023-05-07T01:20:37;24.39;50.01
66962;HTU21D;53897;51.126;5.868;2023-05-07T01:23:03;24.36;50.02
66962;HTU21D;53897;51.126;5.868;2023-05-07T01:25:31;24.38;50.09
66962;HTU21D;53897;51.126;5.868;2023-05-07T01:27:59;24.36;50.16
66962;HTU21D;53897;51.126;5.868;2023-05-07T01:30:32;24.34;50.18
66962;HTU21D;53897;51.126;5.868;2023-05-07T01:33:09;24.35;50.20
66962;HTU21D;53897;51.126;5.868;2023-05-07T01:35:40;24.33;50.18
66962;HTU21D;53897;51.126;5.868;2023-05-07T01:38:07;24.33;50.11
66962;HTU21D;53897;51.126;5.868;2023-05-07T01:40:34;24.33;50.09
66962;HTU21D;53897;51.126;5.868;2023-05-07T01:43:03;24.31;50.05
66962;HTU21D;53897;51.126;5.868;2023-05-07T01:45:30;24.31;50.04
66962;HTU21D;53897;51.126;5.868;2023-05-07T01:47:58;24.31;49.99
66962;HTU21D;53897;51.126;5.868;2023-05-07T01:50:25;24.30;49.95
66962;HTU21D;53897;51.126;5.868;2023-05-07T01:52:51;24.30;49.92
66962;HTU21D;53897;51.126;5.868;2023-05-07T01:55:17;24.28;49.92
66962;HTU21D;53897;51.126;5.868;2023-05-07T01:57:43;24.28;49.95
66962;HTU21D;53897;51.126;5.868;2023-05-07T02:00:09;24.27;49.96
66962;HTU21D;53897;51.126;5.868;2023-05-07T02:02:41;24.26;49.98
66962;HTU21D;53897;51.126;5.868;2023-05-07T02:05:15;24.26;50.03
66962;HTU21D;53897;51.126;5.868;2023-05-07T02:07:42;24.26;50.06
66962;HTU21D;53897;51.126;5.868;2023-05-07T02:10:08;24.25;50.06
66962;HTU21D;53897;51.126;5.868;2023-05-07T02:12:34;24.25;50.05
66962;HTU21D;53897;51.126;5.868;2023-05-07T02:15:00;24.24;50.01
66962;HTU21D;53897;51.126;5.868;2023-05-07T02:17:25;24.24;50.01
66962;HTU21D;53897;51.126;5.868;2023-05-07T02:19:51;24.23;50.01
66962;HTU21D;53897;51.126;5.868;2023-05-07T02:22:18;24.21;50.02
66962;HTU21D;53897;51.126;5.868;2023-05-07T02:24:43;24.21;50.03
66962;HTU21D;53897;51.126;5.868;2023-05-07T02:27:10;24.20;50.07
66962;HTU21D;53897;51.126;5.868;2023-05-07T02:29:36;24.19;50.08
66962;HTU21D;53897;51.126;5.868;2023-05-07T02:32:02;24.18;50.06
66962;HTU21D;53897;51.126;5.868;2023-05-07T02:34:28;24.18;50.11
66962;HTU21D;53897;51.126;5.868;2023-05-07T02:36:54;24.17;50.05
66962;HTU21D;53897;51.126;5.868;2023-05-07T02:39:23;24.16;49.97
66962;HTU21D;53897;51.126;5.868;2023-05-07T02:41:49;24.16;49.88
66962;HTU21D;53897;51.126;5.868;2023-05-07T02:44:15;24.17;49.92
66962;HTU21D;53897;51.126;5.868;2023-05-07T02:46:41;24.16;49.87
66962;HTU21D;53897;51.126;5.868;2023-05-07T02:49:09;24.16;49.87
66962;HTU21D;53897;51.126;5.868;2023-05-07T02:51:35;24.13;49.89
66962;HTU21D;53897;51.126;5.868;2023-05-07T02:54:04;24.14;49.81
66962;HTU21D;53897;51.126;5.868;2023-05-07T02:56:31;24.13;49.79
66962;HTU21D;53897;51.126;5.868;2023-05-07T02:58:57;24.12;49.79
66962;HTU21D;53897;51.126;5.868;2023-05-07T03:01:25;24.11;49.78
66962;HTU21D;53897;51.126;5.868;2023-05-07T03:03:58;24.11;49.76
66962;HTU21D;53897;51.126;5.868;2023-05-07T03:06:24;24.10;49.79
66962;HTU21D;53897;51.126;5.868;2023-05-07T03:08:50;24.09;49.81
66962;HTU21D;53897;51.126;5.868;2023-05-07T03:11:15;24.09;49.76
66962;HTU21D;53897;51.126;5.868;2023-05-07T03:13:41;24.08;49.74
66962;HTU21D;53897;51.126;5.868;2023-05-07T03:16:07;24.06;49.73
66962;HTU21D;53897;51.126;5.868;2023-05-07T03:18:33;24.06;49.71
66962;HTU21D;53897;51.126;5.868;2023-05-07T03:20:58;24.06;49.73
66962;HTU21D;53897;51.126;5.868;2023-05-07T03:23:24;24.04;49.72
66962;HTU21D;53897;51.126;5.868;2023-05-07T03:25:49;24.04;49.73
66962;HTU21D;53897;51.126;5.868;2023-05-07T03:28:15;24.03;49.72
66962;HTU21D;53897;51.126;5.868;2023-05-07T03:30:50;24.02;49.69
66962;HTU21D;53897;51.126;5.868;2023-05-07T03:33:16;24.03;49.68
66962;HTU21D;53897;51.126;5.868;2023-05-07T03:35:41;24.01;49.68
66962;HTU21D;53897;51.126;5.868;2023-05-07T03:38:08;24.02;49.68
66962;HTU21D;53897;51.126;5.868;2023-05-07T03:40:35;24.00;49.66
66962;HTU21D;53897;51.126;5.868;2023-05-07T03:43:03;23.99;49.66
66962;HTU21D;53897;51.126;5.868;2023-05-07T03:45:30;24.01;49.63
66962;HTU21D;53897;51.126;5.868;2023-05-07T03:48:05;23.99;49.64
66962;HTU21D;53897;51.126;5.868;2023-05-07T03:50:32;24.00;49.60
66962;HTU21D;53897;51.126;5.868;2023-05-07T03:52:57;23.99;49.64
66962;HTU21D;53897;51.126;5.868;2023-05-07T03:55:23;23.98;49.61
66962;HTU21D;53897;51.126;5.868;2023-05-07T03:57:54;23.97;49.60
66962;HTU21D;53897;51.126;5.868;2023-05-07T04:00:20;23.97;49.56
66962;HTU21D;53897;51.126;5.868;2023-05-07T04:02:46;23.96;49.60
66962;HTU21D;53897;51.126;5.868;2023-05-07T04:05:14;23.96;49.60
66962;HTU21D;53897;51.126;5.868;2023-05-07T04:07:41;23.95;49.58
66962;HTU21D;53897;51.126;5.868;2023-05-07T04:10:08;23.95;49.56
66962;HTU21D;53897;51.126;5.868;2023-05-07T04:12:34;23.95;49.58
66962;HTU21D;53897;51.126;5.868;2023-05-07T04:15:00;23.92;49.56
66962;HTU21D;53897;51.126;5.868;2023-05-07T04:17:26;23.92;49.54
66962;HTU21D;53897;51.126;5.868;2023-05-07T04:19:52;23.92;49.54
66962;HTU21D;53897;51.126;5.868;2023-05-07T04:22:18;23.91;49.53
66962;HTU21D;53897;51.126;5.868;2023-05-07T04:24:44;23.92;49.53
66962;HTU21D;53897;51.126;5.868;2023-05-07T04:27:11;23.91;49.52
66962;HTU21D;53897;51.126;5.868;2023-05-07T04:29:37;23.89;49.52
66962;HTU21D;53897;51.126;5.868;2023-05-07T04:32:04;23.89;49.52
66962;HTU21D;53897;51.126;5.868;2023-05-07T04:34:30;23.88;49.48
66962;HTU21D;53897;51.126;5.868;2023-05-07T04:36:58;23.88;49.50
66962;HTU21D;53897;51.126;5.868;2023-05-07T04:39:24;23.87;49.50
66962;HTU21D;53897;51.126;5.868;2023-05-07T04:41:50;23.89;49.46
66962;HTU21D;53897;51.126;5.868;2023-05-07T04:44:16;23.87;49.45
66962;HTU21D;53897;51.126;5.868;2023-05-07T04:46:42;23.85;49.35
66962;HTU21D;53897;51.126;5.868;2023-05-07T04:49:08;23.85;49.31
66962;HTU21D;53897;51.126;5.868;2023-05-07T04:51:34;23.83;49.36
66962;HTU21D;53897;51.126;5.868;2023-05-07T04:54:00;23.82;49.40
66962;HTU21D;53897;51.126;5.868;2023-05-07T04:56:28;23.80;49.47
66962;HTU21D;53897;51.126;5.868;2023-05-07T04:58:55;23.76;49.60
66962;HTU21D;53897;51.126;5.868;2023-05-07T05:01:21;23.75;49.64
66962;HTU21D;53897;51.126;5.868;2023-05-07T05:03:47;23.74;49.66
66962;HTU21D;53897;51.126;5.868;2023-05-07T05:06:13;23.72;49.75
66962;HTU21D;53897;51.126;5.868;2023-05-07T05:08:39;23.70;49.83
66962;HTU21D;53897;51.126;5.868;2023-05-07T05:11:05;23.65;49.93
66962;HTU21D;53897;51.126;5.868;2023-05-07T05:13:33;23.61;50.04
66962;HTU21D;53897;51.126;5.868;2023-05-07T05:16:03;23.60;50.12
66962;HTU21D;53897;51.126;5.868;2023-05-07T05:18:31;23.60;50.16
66962;HTU21D;53897;51.126;5.868;2023-05-07T05:20:57;23.61;50.14
66962;HTU21D;53897;51.126;5.868;2023-05-07T05:23:23;23.64;50.11
66962;HTU21D;53897;51.126;5.868;2023-05-07T05:25:49;23.64;50.09
66962;HTU21D;53897;51.126;5.868;2023-05-07T05:28:15;23.65;50.08
66962;HTU21D;53897;51.126;5.868;2023-05-07T05:30:41;23.65;50.07
66962;HTU21D;53897;51.126;5.868;2023-05-07T05:33:07;23.67;50.05
66962;HTU21D;53897;51.126;5.868;2023-05-07T05:35:33;23.67;50.05
66962;HTU21D;53897;51.126;5.868;2023-05-07T05:38:03;23.66;50.05
66962;HTU21D;53897;51.126;5.868;2023-05-07T05:40:29;23.66;50.11
66962;HTU21D;53897;51.126;5.868;2023-05-07T05:42:55;23.61;50.15
66962;HTU21D;53897;51.126;5.868;2023-05-07T05:45:21;23.60;50.24
66962;HTU21D;53897;51.126;5.868;2023-05-07T05:47:47;23.57;50.31
66962;HTU21D;53897;51.126;5.868;2023-05-07T05:50:13;23.55;50.39
66962;HTU21D;53897;51.126;5.868;2023-05-07T05:52:39;23.54;50.46
66962;HTU21D;53897;51.126;5.868;2023-05-07T05:55:06;23.54;50.51
66962;HTU21D;53897;51.126;5.868;2023-05-07T05:57:35;23.56;50.55
66962;HTU21D;53897;51.126;5.868;2023-05-07T06:00:02;23.56;50.63
66962;HTU21D;53897;51.126;5.868;2023-05-07T06:02:30;23.58;50.72
66962;HTU21D;53897;51.126;5.868;2023-05-07T06:04:56;23.60;50.76
66962;HTU21D;53897;51.126;5.868;2023-05-07T06:07:22;23.61;50.66
66962;HTU21D;53897;51.126;5.868;2023-05-07T06:09:48;23.65;50.59
66962;HTU21D;53897;51.126;5.868;2023-05-07T06:12:14;23.66;50.57
66962;HTU21D;53897;51.126;5.868;2023-05-07T06:14:45;23.68;50.44
66962;HTU21D;53897;51.126;5.868;2023-05-07T06:17:11;23.69;50.37
66962;HTU21D;53897;51.126;5.868;2023-05-07T06:19:37;23.72;50.36
66962;HTU21D;53897;51.126;5.868;2023-05-07T06:22:04;23.72;50.35
66962;HTU21D;53897;51.126;5.868;2023-05-07T06:24:31;23.72;50.38
66962;HTU21D;53897;51.126;5.868;2023-05-07T06:26:57;23.73;50.40
66962;HTU21D;53897;51.126;5.868;2023-05-07T06:29:25;23.72;50.50
66962;HTU21D;53897;51.126;5.868;2023-05-07T06:31:56;23.71;50.59
66962;HTU21D;53897;51.126;5.868;2023-05-07T06:34:22;23.70;50.69
66962;HTU21D;53897;51.126;5.868;2023-05-07T06:36:48;23.68;50.79
66962;HTU21D;53897;51.126;5.868;2023-05-07T06:39:26;23.67;50.86
66962;HTU21D;53897;51.126;5.868;2023-05-07T06:41:52;23.67;50.88
66962;HTU21D;53897;51.126;5.868;2023-05-07T06:44:26;23.69;50.86
66962;HTU21D;53897;51.126;5.868;2023-05-07T06:47:11;23.69;50.89
66962;HTU21D;53897;51.126;5.868;2023-05-07T06:49:39;23.69;50.92
66962;HTU21D;53897;51.126;5.868;2023-05-07T06:52:04;23.69;50.95
66962;HTU21D;53897;51.126;5.868;2023-05-07T06:54:31;23.68;50.89
66962;HTU21D;53897;51.126;5.868;2023-05-07T06:56:57;23.69;50.78
66962;HTU21D;53897;51.126;5.868;2023-05-07T06:59:25;23.71;50.74
66962;HTU21D;53897;51.126;5.868;2023-05-07T07:01:51;23.72;50.71
66962;HTU21D;53897;51.126;5.868;2023-05-07T07:04:17;23.74;50.74
66962;HTU21D;53897;51.126;5.868;2023-05-07T07:06:46;23.73;50.70
66962;HTU21D;53897;51.126;5.868;2023-05-07T07:09:13;23.74;50.65
66962;HTU21D;53897;51.126;5.868;2023-05-07T07:11:40;23.74;50.59
66962;HTU21D;53897;51.126;5.868;2023-05-07T07:14:06;23.75;50.53
66962;HTU21D;53897;51.126;5.868;2023-05-07T07:16:36;23.75;50.49
66962;HTU21D;53897;51.126;5.868;2023-05-07T07:19:01;23.76;50.43
66962;HTU21D;53897;51.126;5.868;2023-05-07T07:21:27;23.76;50.38
66962;HTU21D;53897;51.126;5.868;2023-05-07T07:23:53;23.77;50.43
66962;HTU21D;53897;51.126;5.868;2023-05-07T07:26:20;23.77;50.54
66962;HTU21D;53897;51.126;5.868;2023-05-07T07:28:47;23.76;50.66
66962;HTU21D;53897;51.126;5.868;2023-05-07T07:31:16;23.75;50.72
66962;HTU21D;53897;51.126;5.868;2023-05-07T07:33:42;23.76;50.89
66962;HTU21D;53897;51.126;5.868;2023-05-07T07:36:09;23.76;51.08
66962;HTU21D;53897;51.126;5.868;2023-05-07T07:38:35;23.76;51.44
66962;HTU21D;53897;51.126;5.868;2023-05-07T07:41:01;23.77;51.64
66962;HTU21D;53897;51.126;5.868;2023-05-07T07:43:28;23.80;51.69
66962;HTU21D;53897;51.126;5.868;2023-05-07T07:45:54;23.80;51.70
66962;HTU21D;53897;51.126;5.868;2023-05-07T07:48:20;23.82;51.82
66962;HTU21D;53897;51.126;5.868;2023-05-07T07:50:48;23.82;52.08
66962;HTU21D;53897;51.126;5.868;2023-05-07T07:53:15;23.83;52.41
66962;HTU21D;53897;51.126;5.868;2023-05-07T07:55:41;23.82;52.56
66962;HTU21D;53897;51.126;5.868;2023-05-07T07:58:09;23.82;52.69
66962;HTU21D;53897;51.126;5.868;2023-05-07T08:00:35;23.81;52.69
66962;HTU21D;53897;51.126;5.868;2023-05-07T08:03:01;23.80;52.72
66962;HTU21D;53897;51.126;5.868;2023-05-07T08:05:32;23.80;52.73
66962;HTU21D;53897;51.126;5.868;2023-05-07T08:07:58;23.77;52.79
66962;HTU21D;53897;51.126;5.868;2023-05-07T08:10:29;23.76;52.85
66962;HTU21D;53897;51.126;5.868;2023-05-07T08:13:01;23.76;52.84
66962;HTU21D;53897;51.126;5.868;2023-05-07T08:15:29;23.79;52.75
66962;HTU21D;53897;51.126;5.868;2023-05-07T08:17:55;23.81;52.59
66962;HTU21D;53897;51.126;5.868;2023-05-07T08:20:23;23.84;52.51
66962;HTU21D;53897;51.126;5.868;2023-05-07T08:22:51;23.85;52.52
66962;HTU21D;53897;51.126;5.868;2023-05-07T08:25:17;23.84;52.59
66962;HTU21D;53897;51.126;5.868;2023-05-07T08:27:42;23.81;52.66
66962;HTU21D;53897;51.126;5.868;2023-05-07T08:30:10;23.81;52.79
66962;HTU21D;53897;51.126;5.868;2023-05-07T08:32:36;23.81;52.81
66962;HTU21D;53897;51.126;5.868;2023-05-07T08:35:02;23.84;52.82
66962;HTU21D;53897;51.126;5.868;2023-05-07T08:37:28;23.86;52.82
66962;HTU21D;53897;51.126;5.868;2023-05-07T08:39:54;23.88;52.81
66962;HTU21D;53897;51.126;5.868;2023-05-07T08:42:24;23.88;52.76
66962;HTU21D;53897;51.126;5.868;2023-05-07T08:44:51;23.91;52.73
66962;HTU21D;53897;51.126;5.868;2023-05-07T08:47:20;23.92;52.67
66962;HTU21D;53897;51.126;5.868;2023-05-07T08:49:49;23.97;52.53
66962;HTU21D;53897;51.126;5.868;2023-05-07T08:52:16;23.99;52.41
66962;HTU21D;53897;51.126;5.868;2023-05-07T08:54:43;24.01;52.28
66962;HTU21D;53897;51.126;5.868;2023-05-07T08:57:09;24.04;52.18
66962;HTU21D;53897;51.126;5.868;2023-05-07T08:59:35;24.05;52.10
66962;HTU21D;53897;51.126;5.868;2023-05-07T09:02:03;24.09;52.07
66962;HTU21D;53897;51.126;5.868;2023-05-07T09:04:29;24.08;52.00
66962;HTU21D;53897;51.126;5.868;2023-05-07T09:06:54;24.10;51.94
66962;HTU21D;53897;51.126;5.868;2023-05-07T09:09:22;24.10;51.88
66962;HTU21D;53897;51.126;5.868;2023-05-07T09:11:57;24.12;51.88
66962;HTU21D;53897;51.126;5.868;2023-05-07T09:14:25;24.14;51.85
66962;HTU21D;53897;51.126;5.868;2023-05-07T09:16:54;24.16;51.85
66962;HTU21D;53897;51.126;5.868;2023-05-07T09:19:24;24.15;51.88
66962;HTU21D;53897;51.126;5.868;2023-05-07T09:22:02;24.17;51.89
66962;HTU21D;53897;51.126;5.868;2023-05-07T09:24:34;24.18;51.85
66962;HTU21D;53897;51.126;5.868;2023-05-07T09:27:05;24.19;51.89
66962;HTU21D;53897;51.126;5.868;2023-05-07T09:29:31;24.18;51.90
66962;HTU21D;53897;51.126;5.868;2023-05-07T09:32:06;24.19;51.79
66962;HTU21D;53897;51.126;5.868;2023-05-07T09:34:32;24.21;51.77
66962;HTU21D;53897;51.126;5.868;2023-05-07T09:37:01;24.21;51.80
66962;HTU21D;53897;51.126;5.868;2023-05-07T09:39:38;24.23;51.81
66962;HTU21D;53897;51.126;5.868;2023-05-07T09:42:05;24.23;51.80
66962;HTU21D;53897;51.126;5.868;2023-05-07T09:44:35;24.24;51.78
66962;HTU21D;53897;51.126;5.868;2023-05-07T09:47:05;24.26;51.75
66962;HTU21D;53897;51.126;5.868;2023-05-07T09:49:39;24.25;51.66
66962;HTU21D;53897;51.126;5.868;2023-05-07T09:52:10;24.25;51.57
66962;HTU21D;53897;51.126;5.868;2023-05-07T09:54:40;24.23;51.68
66962;HTU21D;53897;51.126;5.868;2023-05-07T09:57:11;24.18;51.85
66962;HTU21D;53897;51.126;5.868;2023-05-07T09:59:38;24.18;51.90
66962;HTU21D;53897;51.126;5.868;2023-05-07T10:02:09;24.20;51.95
66962;HTU21D;53897;51.126;5.868;2023-05-07T10:04:43;24.20;51.91
66962;HTU21D;53897;51.126;5.868;2023-05-07T10:07:10;24.21;52.04
66962;HTU21D;53897;51.126;5.868;2023-05-07T10:09:37;24.25;52.06
66962;HTU21D;53897;51.126;5.868;2023-05-07T10:12:06;24.26;52.13
66962;HTU21D;53897;51.126;5.868;2023-05-07T10:14:33;24.28;52.24
66962;HTU21D;53897;51.126;5.868;2023-05-07T10:17:00;24.31;52.13
66962;HTU21D;53897;51.126;5.868;2023-05-07T10:19:29;24.31;52.17
66962;HTU21D;53897;51.126;5.868;2023-05-07T10:22:02;24.32;52.08
66962;HTU21D;53897;51.126;5.868;2023-05-07T10:24:32;24.34;52.05
66962;HTU21D;53897;51.126;5.868;2023-05-07T10:27:11;24.34;52.11
66962;HTU21D;53897;51.126;5.868;2023-05-07T10:30:10;24.39;52.16
66962;HTU21D;53897;51.126;5.868;2023-05-07T10:32:47;24.40;52.11
66962;HTU21D;53897;51.126;5.868;2023-05-07T10:35:26;24.42;52.13
66962;HTU21D;53897;51.126;5.868;2023-05-07T10:37:55;24.44;52.11
66962;HTU21D;53897;51.126;5.868;2023-05-07T10:40:23;24.44;52.03
66962;HTU21D;53897;51.126;5.868;2023-05-07T10:43:01;24.46;51.98
66962;HTU21D;53897;51.126;5.868;2023-05-07T10:45:31;24.47;51.88
66962;HTU21D;53897;51.126;5.868;2023-05-07T10:48:15;24.48;51.79
66962;HTU21D;53897;51.126;5.868;2023-05-07T10:50:46;24.49;51.72
66962;HTU21D;53897;51.126;5.868;2023-05-07T10:53:23;24.49;51.63
66962;HTU21D;53897;51.126;5.868;2023-05-07T10:58:45;24.50;51.53
66962;HTU21D;53897;51.126;5.868;2023-05-07T11:01:49;24.53;51.51
66962;HTU21D;53897;51.126;5.868;2023-05-07T11:04:17;24.53;51.50
66962;HTU21D;53897;51.126;5.868;2023-05-07T11:15:04;24.54;51.50
66962;HTU21D;53897;51.126;5.868;2023-05-07T11:17:52;24.55;51.55
66962;HTU21D;53897;51.126;5.868;2023-05-07T11:20:18;24.57;51.56
66962;HTU21D;53897;51.126;5.868;2023-05-07T11:22:52;24.58;51.55
66962;HTU21D;53897;51.126;5.868;2023-05-07T11:25:24;24.58;51.47
66962;HTU21D;53897;51.126;5.868;2023-05-07T11:28:04;24.58;51.43
66962;HTU21D;53897;51.126;5.868;2023-05-07T11:30:31;24.58;51.32
66962;HTU21D;53897;51.126;5.868;2023-05-07T11:32:57;24.57;51.08
66962;HTU21D;53897;51.126;5.868;2023-05-07T11:35:24;24.57;50.95
66962;HTU21D;53897;51.126;5.868;2023-05-07T11:37:58;24.58;50.88
66962;HTU21D;53897;51.126;5.868;2023-05-07T11:40:24;24.60;50.88
66962;HTU21D;53897;51.126;5.868;2023-05-07T11:42:50;24.59;50.93
66962;HTU21D;53897;51.126;5.868;2023-05-07T11:45:24;24.60;50.93
66962;HTU21D;53897;51.126;5.868;2023-05-07T11:47:52;24.59;50.91
66962;HTU21D;53897;51.126;5.868;2023-05-07T11:50:18;24.59;50.92
66962;HTU21D;53897;51.126;5.868;2023-05-07T11:52:51;24.59;50.88
66962;HTU21D;53897;51.126;5.868;2023-05-07T11:55:18;24.60;50.90
66962;HTU21D;53897;51.126;5.868;2023-05-07T11:57:44;24.59;50.88
66962;HTU21D;53897;51.126;5.868;2023-05-07T12:00:11;24.59;50.88
66962;HTU21D;53897;51.126;5.868;2023-05-07T12:02:40;24.59;50.87
66962;HTU21D;53897;51.126;5.868;2023-05-07T12:05:07;24.58;50.85
66962;HTU21D;53897;51.126;5.868;2023-05-07T12:07:34;24.59;50.86
66962;HTU21D;53897;51.126;5.868;2023-05-07T12:10:04;24.59;50.88
66962;HTU21D;53897;51.126;5.868;2023-05-07T12:12:30;24.58;50.98
66962;HTU21D;53897;51.126;5.868;2023-05-07T12:14:56;24.58;50.99
66962;HTU21D;53897;51.126;5.868;2023-05-07T12:17:22;24.59;51.06
66962;HTU21D;53897;51.126;5.868;2023-05-07T12:19:48;24.58;51.21
66962;HTU21D;53897;51.126;5.868;2023-05-07T12:22:14;24.58;51.30
66962;HTU21D;53897;51.126;5.868;2023-05-07T12:24:48;24.59;51.43
66962;HTU21D;53897;51.126;5.868;2023-05-07T12:27:15;24.58;51.52
66962;HTU21D;53897;51.126;5.868;2023-05-07T12:29:48;24.58;51.56
66962;HTU21D;53897;51.126;5.868;2023-05-07T12:32:19;24.58;51.59
66962;HTU21D;53897;51.126;5.868;2023-05-07T12:34:46;24.58;51.64
66962;HTU21D;53897;51.126;5.868;2023-05-07T12:37:12;24.59;51.64
66962;HTU21D;53897;51.126;5.868;2023-05-07T12:39:44;24.59;51.66
66962;HTU21D;53897;51.126;5.868;2023-05-07T12:42:15;24.59;51.69
66962;HTU21D;53897;51.126;5.868;2023-05-07T12:44:45;24.61;51.67
66962;HTU21D;53897;51.126;5.868;2023-05-07T12:47:12;24.61;51.73
66962;HTU21D;53897;51.126;5.868;2023-05-07T12:49:38;24.60;51.71
66962;HTU21D;53897;51.126;5.868;2023-05-07T12:52:06;24.61;51.67
66962;HTU21D;53897;51.126;5.868;2023-05-07T12:54:33;24.62;51.59
66962;HTU21D;53897;51.126;5.868;2023-05-07T12:57:05;24.62;51.56
66962;HTU21D;53897;51.126;5.868;2023-05-07T12:59:39;24.63;51.55
66962;HTU21D;53897;51.126;5.868;2023-05-07T13:02:06;24.62;51.58
66962;HTU21D;53897;51.126;5.868;2023-05-07T13:04:32;24.62;51.56
66962;HTU21D;53897;51.126;5.868;2023-05-07T13:06:59;24.62;51.54
66962;HTU21D;53897;51.126;5.868;2023-05-07T13:09:25;24.63;51.55
66962;HTU21D;53897;51.126;5.868;2023-05-07T13:11:51;24.63;51.56
66962;HTU21D;53897;51.126;5.868;2023-05-07T13:14:16;24.64;51.55
66962;HTU21D;53897;51.126;5.868;2023-05-07T13:16:43;24.64;51.55
66962;HTU21D;53897;51.126;5.868;2023-05-07T13:19:08;24.64;51.56
66962;HTU21D;53897;51.126;5.868;2023-05-07T13:21:34;24.64;51.55
66962;HTU21D;53897;51.126;5.868;2023-05-07T13:24:00;24.64;51.55
66962;HTU21D;53897;51.126;5.868;2023-05-07T13:26:26;24.65;51.54
66962;HTU21D;53897;51.126;5.868;2023-05-07T13:28:53;24.65;51.55
66962;HTU21D;53897;51.126;5.868;2023-05-07T13:31:19;24.65;51.56
66962;HTU21D;53897;51.126;5.868;2023-05-07T13:33:46;24.65;51.53
66962;HTU21D;53897;51.126;5.868;2023-05-07T13:36:12;24.66;51.48
66962;HTU21D;53897;51.126;5.868;2023-05-07T13:38:41;24.64;51.53
66962;HTU21D;53897;51.126;5.868;2023-05-07T13:41:07;24.65;51.53
66962;HTU21D;53897;51.126;5.868;2023-05-07T13:43:33;24.65;51.53
66962;HTU21D;53897;51.126;5.868;2023-05-07T13:45:59;24.65;51.55
66962;HTU21D;53897;51.126;5.868;2023-05-07T13:48:26;24.64;51.54
66962;HTU21D;53897;51.126;5.868;2023-05-07T13:50:51;24.66;51.59
66962;HTU21D;53897;51.126;5.868;2023-05-07T13:53:18;24.64;51.65
66962;HTU21D;53897;51.126;5.868;2023-05-07T13:55:44;24.64;51.63
66962;HTU21D;53897;51.126;5.868;2023-05-07T13:58:10;24.64;51.62
66962;HTU21D;53897;51.126;5.868;2023-05-07T14:00:37;24.65;51.57
66962;HTU21D;53897;51.126;5.868;2023-05-07T14:03:04;24.66;51.56
66962;HTU21D;53897;51.126;5.868;2023-05-07T14:05:30;24.65;51.56
66962;HTU21D;53897;51.126;5.868;2023-05-07T14:07:59;24.66;51.56
66962;HTU21D;53897;51.126;5.868;2023-05-07T14:10:25;24.68;51.58
66962;HTU21D;53897;51.126;5.868;2023-05-07T14:12:51;24.66;51.58
66962;HTU21D;53897;51.126;5.868;2023-05-07T14:15:18;24.68;51.55
66962;HTU21D;53897;51.126;5.868;2023-05-07T14:17:44;24.69;51.55
66962;HTU21D;53897;51.126;5.868;2023-05-07T14:20:11;24.70;51.53
66962;HTU21D;53897;51.126;5.868;2023-05-07T14:22:37;24.69;51.52
66962;HTU21D;53897;51.126;5.868;2023-05-07T14:25:03;24.69;51.51
66962;HTU21D;53897;51.126;5.868;2023-05-07T14:27:29;24.70;51.51
66962;HTU21D;53897;51.126;5.868;2023-05-07T14:29:55;24.70;51.47
66962;HTU21D;53897;51.126;5.868;2023-05-07T14:32:21;24.70;51.49
66962;HTU21D;53897;51.126;5.868;2023-05-07T14:34:47;24.71;51.46
66962;HTU21D;53897;51.126;5.868;2023-05-07T14:37:12;24.72;51.46
66962;HTU21D;53897;51.126;5.868;2023-05-07T14:39:39;24.71;51.44
66962;HTU21D;53897;51.126;5.868;2023-05-07T14:42:05;24.73;51.44
66962;HTU21D;53897;51.126;5.868;2023-05-07T14:44:34;24.72;51.43
66962;HTU21D;53897;51.126;5.868;2023-05-07T14:47:00;24.73;51.42
66962;HTU21D;53897;51.126;5.868;2023-05-07T14:49:26;24.73;51.42
66962;HTU21D;53897;51.126;5.868;2023-05-07T14:51:52;24.73;51.41
66962;HTU21D;53897;51.126;5.868;2023-05-07T14:54:17;24.74;51.40
66962;HTU21D;53897;51.126;5.868;2023-05-07T14:56:43;24.74;51.40
66962;HTU21D;53897;51.126;5.868;2023-05-07T14:59:09;24.74;51.37
66962;HTU21D;53897;51.126;5.868;2023-05-07T15:01:36;24.74;51.38
66962;HTU21D;53897;51.126;5.868;2023-05-07T15:04:05;24.74;51.36
66962;HTU21D;53897;51.126;5.868;2023-05-07T15:06:31;24.74;51.36
66962;HTU21D;53897;51.126;5.868;2023-05-07T15:08:57;24.74;51.38
66962;HTU21D;53897;51.126;5.868;2023-05-07T15:11:23;24.74;51.37
66962;HTU21D;53897;51.126;5.868;2023-05-07T15:13:49;24.74;51.36
66962;HTU21D;53897;51.126;5.868;2023-05-07T15:16:15;24.75;51.36
66962;HTU21D;53897;51.126;5.868;2023-05-07T15:18:42;24.75;51.37
66962;HTU21D;53897;51.126;5.868;2023-05-07T15:21:08;24.77;51.36
66962;HTU21D;53897;51.126;5.868;2023-05-07T15:23:35;24.75;51.35
66962;HTU21D;53897;51.126;5.868;2023-05-07T15:26:01;24.76;51.33
66962;HTU21D;53897;51.126;5.868;2023-05-07T15:28:33;24.76;51.33